Time;durP1;ratioP1;P1;durP2;ratioP2;P2;SDS_P1;SDS_P2;PMS_P1;PMS_P2;Temp;Humidity;BMP_temperature;BMP_pressure;BME280_temperature;BME280_humidity;BME280_pressure;Samples;Min_cycle;Max_cycle;Signal;HPM_P1;HPM_P2
2024/01/07 00:01:05;;;;;;;6.70;5.03;;;1.90;99.90;;;;;;5131176;27;20668;-82
2024/01/07 00:03:33;;;;;;;7.90;5.07;;;1.90;99.90;;;;;;5127530;27;20229;-83
2024/01/07 00:06:00;;;;;;;6.90;5.13;;;2.00;99.90;;;;;;5120598;27;20441;-82
2024/01/07 00:08:36;;;;;;;11.23;9.18;;;2.00;99.90;;;;;;5136907;27;20309;-82
2024/01/07 00:11:51;;;;;;;12.38;10.00;;;2.10;99.90;;;;;;5098660;28;20228;-92
2024/01/07 00:17:41;;;;;;;9.02;6.90;;;2.10;99.90;;;;;;5104175;27;20226;-96
2024/01/07 00:20:31;;;;;;;10.30;8.52;;;2.20;99.90;;;;;;5125603;27;20216;-93
2024/01/07 00:23:36;;;;;;;11.77;5.40;;;2.20;99.90;;;;;;5108634;27;20224;-83
2024/01/07 00:26:13;;;;;;;5.53;5.00;;;2.10;99.90;;;;;;5107140;27;20213;-83
2024/01/07 00:28:49;;;;;;;9.63;4.88;;;2.20;99.90;;;;;;5135933;27;20241;-84
2024/01/07 00:31:19;;;;;;;8.90;5.03;;;2.00;99.90;;;;;;5117502;27;20207;-83
2024/01/07 00:33:50;;;;;;;6.20;4.75;;;2.10;99.90;;;;;;5116981;27;20226;-92
2024/01/07 00:36:35;;;;;;;6.70;4.35;;;2.00;99.90;;;;;;5119983;27;20221;-91
2024/01/07 00:39:14;;;;;;;5.00;4.22;;;1.90;99.90;;;;;;5122613;27;20222;-92
2024/01/07 00:41:48;;;;;;;4.55;3.80;;;1.90;99.90;;;;;;5130546;27;20223;-85
2024/01/07 00:44:49;;;;;;;7.15;4.28;;;1.80;99.90;;;;;;5118716;27;20217;-93
2024/01/07 00:50:58;;;;;;;4.05;2.85;;;1.80;99.90;;;;;;5083442;27;20221;-84
2024/01/07 00:53:42;;;;;;;4.47;3.75;;;1.70;99.90;;;;;;5077450;27;20231;-91
2024/01/07 00:56:25;;;;;;;3.58;2.55;;;1.70;99.90;;;;;;5111478;27;20222;-90
2024/01/07 01:02:40;;;;;;;3.80;3.30;;;1.70;99.90;;;;;;5114562;27;20301;-93
2024/01/07 01:05:10;;;;;;;2.80;2.58;;;1.60;99.90;;;;;;5115415;27;20226;-92
2024/01/07 01:07:46;;;;;;;4.13;3.30;;;1.70;99.90;;;;;;5105248;27;20740;-84
2024/01/07 01:10:36;;;;;;;;;;;;;;;;;;;;;
2024/01/07 01:13:05;;;;;;;7.93;3.33;;;1.60;99.90;;;;;;5104009;27;20223;-84
2024/01/07 01:15:48;;;;;;;4.32;3.65;;;1.50;99.90;;;;;;5096583;28;20709;-91
2024/01/07 01:18:21;;;;;;;4.20;2.90;;;1.50;99.90;;;;;;5087088;28;20565;-91
2024/01/07 01:21:07;;;;;;;5.55;3.42;;;1.50;99.90;;;;;;5099012;28;20772;-84
2024/01/07 01:27:13;;;;;;;3.92;2.88;;;1.30;99.90;;;;;;5110494;27;20215;-84
2024/01/07 01:30:18;;;;;;;2.97;2.65;;;1.20;99.90;;;;;;5089863;27;20222;-85
2024/01/07 01:32:54;;;;;;;4.22;3.03;;;1.20;99.90;;;;;;5117797;27;20245;-94
2024/01/07 01:35:31;;;;;;;5.95;2.88;;;1.10;99.90;;;;;;5111698;27;20246;-93
2024/01/07 01:37:58;;;;;;;3.50;3.00;;;1.10;99.90;;;;;;5123586;27;20252;-93
2024/01/07 01:40:27;;;;;;;4.18;3.22;;;1.10;99.90;;;;;;5108340;27;20228;-85
2024/01/07 01:43:05;;;;;;;3.70;3.30;;;1.00;99.90;;;;;;5088913;27;20685;-93
2024/01/07 01:46:05;;;;;;;4.72;3.50;;;1.10;99.90;;;;;;5116939;27;20194;-93
2024/01/07 01:48:33;;;;;;;5.03;3.78;;;1.10;99.90;;;;;;5122070;27;20236;-93
2024/01/07 01:51:15;;;;;;;4.75;4.00;;;1.00;99.90;;;;;;5092067;28;20311;-84
2024/01/07 01:53:52;;;;;;;4.13;3.70;;;1.10;99.90;;;;;;5114795;27;20230;-83
2024/01/07 01:56:20;;;;;;;3.42;2.65;;;1.00;99.90;;;;;;5130466;27;20353;-83
2024/01/07 01:58:48;;;;;;;3.75;3.10;;;1.00;99.90;;;;;;5132947;27;20608;-83
2024/01/07 02:01:17;;;;;;;5.70;3.53;;;1.00;99.90;;;;;;5106903;27;20325;-84
2024/01/07 02:03:46;;;;;;;7.57;4.28;;;1.00;99.90;;;;;;5129876;27;20305;-84
2024/01/07 02:06:19;;;;;;;3.50;3.17;;;1.00;99.90;;;;;;5113378;28;20223;-85
2024/01/07 02:08:49;;;;;;;5.38;3.20;;;1.00;99.90;;;;;;5114288;28;20243;-93
2024/01/07 02:11:23;;;;;;;4.88;2.75;;;1.00;99.90;;;;;;5110407;28;20233;-93
2024/01/07 02:13:50;;;;;;;5.72;3.10;;;0.90;99.90;;;;;;5114839;27;20226;-94
2024/01/07 02:16:23;;;;;;;4.28;2.95;;;0.90;99.90;;;;;;5108294;27;20591;-93
2024/01/07 02:18:53;;;;;;;5.22;3.92;;;1.00;99.90;;;;;;5131638;27;20307;-85
2024/01/07 02:24:07;;;;;;;4.10;3.70;;;1.00;99.90;;;;;;5123669;28;20257;-84
2024/01/07 02:26:36;;;;;;;4.13;3.00;;;0.90;99.90;;;;;;5102358;28;20213;-84
2024/01/07 02:29:04;;;;;;;2.53;2.22;;;0.80;99.90;;;;;;5125086;28;20240;-92
2024/01/07 02:31:44;;;;;;;3.58;2.55;;;0.80;99.90;;;;;;5117695;28;20691;-85
2024/01/07 02:34:14;;;;;;;3.65;2.95;;;0.80;99.90;;;;;;5131433;28;20579;-85
2024/01/07 02:36:41;;;;;;;3.00;2.70;;;0.60;99.90;;;;;;5116085;27;20374;-85
2024/01/07 02:39:17;;;;;;;4.25;2.70;;;0.60;99.90;;;;;;5117779;28;20237;-84
2024/01/07 02:41:49;;;;;;;3.63;2.17;;;0.60;99.90;;;;;;5121992;28;20225;-93
2024/01/07 02:44:23;;;;;;;2.90;2.70;;;0.60;99.90;;;;;;5110821;28;20214;-93
2024/01/07 02:47:05;;;;;;;3.40;3.05;;;0.60;99.90;;;;;;5135194;28;20300;-94
2024/01/07 02:49:32;;;;;;;2.13;2.03;;;0.50;99.90;;;;;;5110295;28;20217;-94
2024/01/07 02:51:59;;;;;;;2.75;2.28;;;0.50;99.90;;;;;;5113955;28;20326;-82
2024/01/07 02:54:28;;;;;;;2.53;2.30;;;0.50;99.90;;;;;;5123122;28;20618;-83
2024/01/07 02:56:55;;;;;;;2.72;2.53;;;0.40;99.90;;;;;;5124499;28;20218;-83
2024/01/07 02:59:25;;;;;;;4.47;1.90;;;0.40;99.90;;;;;;5113371;28;20265;-83
2024/01/07 03:02:12;;;;;;;3.08;2.25;;;0.30;99.90;;;;;;5139218;28;20254;-93
2024/01/07 03:04:42;;;;;;;2.17;1.95;;;0.30;99.90;;;;;;5133993;28;20225;-93
2024/01/07 03:07:25;;;;;;;2.95;2.65;;;0.30;99.90;;;;;;5131433;27;20221;-94
2024/01/07 03:10:28;;;;;;;2.25;2.05;;;0.30;99.90;;;;;;5143166;27;20226;-91
2024/01/07 03:12:55;;;;;;;4.78;2.30;;;0.30;99.90;;;;;;5119707;27;20229;-83
2024/01/07 03:15:22;;;;;;;4.65;2.45;;;0.30;99.90;;;;;;5124887;27;20286;-95
2024/01/07 03:18:08;;;;;;;6.53;3.00;;;0.30;99.90;;;;;;5124341;27;20232;-94
2024/01/07 03:20:35;;;;;;;2.78;2.22;;;0.30;99.90;;;;;;5128374;27;20232;-94
2024/01/07 03:23:10;;;;;;;5.57;3.47;;;0.30;99.90;;;;;;5140745;27;20230;-95
2024/01/07 03:25:43;;;;;;;5.65;3.20;;;0.20;99.90;;;;;;5119950;28;20304;-94
2024/01/07 03:28:12;;;;;;;2.90;2.67;;;0.20;99.90;;;;;;5108774;28;20252;-83
2024/01/07 03:30:48;;;;;;;4.18;2.60;;;0.20;99.90;;;;;;5122796;27;20223;-84
2024/01/07 03:33:17;;;;;;;3.97;2.92;;;0.20;99.90;;;;;;5124273;27;20226;-84
2024/01/07 03:35:52;;;;;;;3.78;2.28;;;0.20;99.90;;;;;;5135470;27;20214;-84
2024/01/07 03:41:25;;;;;;;5.80;3.58;;;0.20;99.90;;;;;;5103454;27;20211;-83
2024/01/07 03:43:53;;;;;;;7.60;2.70;;;0.20;99.90;;;;;;5117327;27;20251;-84
2024/01/07 03:46:20;;;;;;;8.70;2.90;;;0.20;99.90;;;;;;5121817;27;20222;-84
2024/01/07 03:48:49;;;;;;;3.40;2.70;;;0.10;99.90;;;;;;5115851;28;20226;-83
2024/01/07 03:51:31;;;;;;;3.15;2.42;;;0.20;99.90;;;;;;5120759;27;20225;-83
2024/01/07 03:53:59;;;;;;;3.75;2.78;;;0.10;99.90;;;;;;5120842;27;20315;-83
2024/01/07 04:00:17;;;;;;;;;;;;;;;;;;;;;
2024/01/07 04:02:49;;;;;;;2.75;2.50;;;0.10;99.90;;;;;;5115268;28;20520;-84
2024/01/07 04:05:18;;;;;;;2.65;2.45;;;0.20;99.90;;;;;;5126815;27;20221;-83
2024/01/07 04:07:45;;;;;;;3.05;2.60;;;0.20;99.90;;;;;;5116135;27;20568;-84
2024/01/07 04:10:16;;;;;;;1.95;1.80;;;0.10;99.90;;;;;;5124340;27;20234;-84
2024/01/07 04:12:44;;;;;;;3.72;2.20;;;0.20;99.90;;;;;;5128247;27;20230;-84
2024/01/07 04:15:15;;;;;;;3.05;2.15;;;0.20;99.90;;;;;;5116215;28;20230;-84
2024/01/07 04:17:49;;;;;;;2.50;2.25;;;0.20;99.90;;;;;;5113511;28;20272;-85
2024/01/07 04:20:16;;;;;;;4.35;3.03;;;0.20;99.90;;;;;;5116055;28;20257;-84
2024/01/07 04:22:46;;;;;;;3.08;2.47;;;0.30;99.90;;;;;;5111128;27;20217;-84
2024/01/07 04:25:18;;;;;;;2.53;2.22;;;0.20;99.90;;;;;;5113184;27;20568;-85
2024/01/07 04:27:47;;;;;;;3.40;2.58;;;0.20;99.90;;;;;;5109039;27;20264;-84
2024/01/07 04:30:25;;;;;;;3.42;2.72;;;0.20;99.90;;;;;;5094804;28;20602;-84
2024/01/07 04:32:58;;;;;;;3.53;3.15;;;0.20;99.90;;;;;;5104701;28;20363;-84
2024/01/07 04:35:28;;;;;;;2.47;2.13;;;0.20;99.90;;;;;;5096873;28;20230;-84
2024/01/07 04:37:59;;;;;;;3.35;2.70;;;0.10;99.90;;;;;;5104701;28;20235;-84
2024/01/07 04:40:29;;;;;;;3.60;2.60;;;0.20;99.90;;;;;;5110851;27;20688;-84
2024/01/07 04:42:58;;;;;;;2.63;2.42;;;0.10;99.90;;;;;;5127767;27;20680;-84
2024/01/07 04:45:29;;;;;;;3.28;2.55;;;0.10;99.90;;;;;;5134501;27;20222;-84
2024/01/07 04:47:58;;;;;;;3.22;2.13;;;0.10;99.90;;;;;;5135950;27;20648;-83
2024/01/07 04:50:30;;;;;;;3.42;2.63;;;0.10;99.90;;;;;;5123589;27;20707;-83
2024/01/07 04:53:07;;;;;;;2.80;2.60;;;0.10;99.90;;;;;;5132102;27;20570;-93
2024/01/07 04:55:35;;;;;;;2.72;2.10;;;0.10;99.90;;;;;;5122474;27;20255;-93
2024/01/07 04:58:04;;;;;;;2.67;2.22;;;0.10;99.90;;;;;;5128835;27;20224;-94
2024/01/07 05:00:38;;;;;;;3.05;2.72;;;0.10;99.90;;;;;;5129192;27;20648;-94
2024/01/07 05:03:06;;;;;;;3.00;2.63;;;0.00;99.90;;;;;;5317116;22;20514;-94
2024/01/07 05:05:33;;;;;;;2.83;2.55;;;0.00;99.90;;;;;;5114116;28;20278;-93
2024/01/07 05:08:08;;;;;;;3.88;3.10;;;0.10;99.90;;;;;;5119476;28;20229;-93
2024/01/07 05:10:37;;;;;;;2.78;2.53;;;0.10;99.90;;;;;;5124979;27;20221;-94
2024/01/07 05:13:06;;;;;;;3.13;2.35;;;0.20;99.90;;;;;;5141896;27;20240;-93
2024/01/07 05:15:38;;;;;;;2.75;2.33;;;0.30;99.90;;;;;;5154877;27;20221;-94
2024/01/07 05:18:09;;;;;;;7.90;3.05;;;0.30;99.90;;;;;;5154090;27;20248;-93
2024/01/07 05:20:38;;;;;;;3.65;2.50;;;0.40;99.90;;;;;;5153222;27;20217;-93
2024/01/07 05:23:05;;;;;;;3.33;3.03;;;0.40;99.90;;;;;;5150357;27;20222;-90
2024/01/07 05:25:33;;;;;;;2.80;2.60;;;0.40;99.90;;;;;;5137617;27;20219;-94
2024/01/07 05:28:02;;;;;;;3.00;2.65;;;0.50;99.90;;;;;;5134441;27;20225;-93
2024/01/07 05:30:32;;;;;;;4.35;2.50;;;0.50;99.90;;;;;;5139500;27;20221;-94
2024/01/07 05:33:24;;;;;;;2.20;2.00;;;0.50;99.90;;;;;;5138274;27;20222;-93
2024/01/07 05:36:04;;;;;;;4.30;2.65;;;0.40;99.90;;;;;;5138417;27;20214;-94
2024/01/07 05:38:38;;;;;;;3.92;2.50;;;0.50;99.90;;;;;;5138285;27;20229;-94
2024/01/07 05:41:08;;;;;;;4.00;2.60;;;0.50;99.90;;;;;;5127210;27;20656;-94
2024/01/07 05:43:43;;;;;;;3.22;2.67;;;0.50;99.90;;;;;;5139578;27;20317;-93
2024/01/07 05:46:17;;;;;;;3.30;3.00;;;0.60;99.90;;;;;;5138257;27;20221;-94
2024/01/07 05:48:58;;;;;;;2.83;2.45;;;0.60;99.90;;;;;;5127388;27;20694;-94
2024/01/07 05:51:25;;;;;;;4.82;2.60;;;0.70;99.90;;;;;;5125554;27;20218;-93
2024/01/07 05:53:54;;;;;;;2.38;2.20;;;0.70;99.90;;;;;;5135175;27;20214;-93
2024/01/07 05:56:21;;;;;;;3.42;2.30;;;0.70;99.90;;;;;;5137685;27;20279;-94
2024/01/07 05:58:48;;;;;;;4.30;3.30;;;0.70;99.90;;;;;;5136746;27;20222;-95
2024/01/07 06:01:20;;;;;;;4.15;2.90;;;0.60;99.90;;;;;;5136517;27;20770;-94
2024/01/07 06:03:49;;;;;;;4.18;3.20;;;0.60;99.90;;;;;;5136736;27;20232;-94
2024/01/07 06:06:41;;;;;;;3.30;2.70;;;0.70;99.90;;;;;;5136263;27;20221;-94
2024/01/07 06:09:08;;;;;;;2.50;2.30;;;0.70;99.90;;;;;;5126986;27;20246;-94
2024/01/07 06:15:07;;;;;;;3.45;2.75;;;0.80;99.90;;;;;;5097695;28;20226;-94
2024/01/07 06:17:48;;;;;;;3.40;2.50;;;0.80;99.90;;;;;;5099787;28;20676;-94
2024/01/07 06:20:27;;;;;;;6.45;2.75;;;0.80;99.90;;;;;;5094966;28;20226;-95
2024/01/07 06:23:00;;;;;;;2.85;2.47;;;0.80;99.90;;;;;;5092798;28;20656;-94
2024/01/07 06:25:39;;;;;;;3.08;2.60;;;0.80;99.90;;;;;;5078817;28;20224;-94
2024/01/07 06:28:06;;;;;;;4.20;3.13;;;0.80;99.90;;;;;;5092981;28;20660;-94
2024/01/07 06:30:33;;;;;;;3.95;3.55;;;0.70;99.90;;;;;;5116076;28;20679;-94
2024/01/07 06:36:42;;;;;;;3.20;2.90;;;0.70;99.90;;;;;;5053153;28;20360;-95
2024/01/07 06:39:11;;;;;;;4.07;3.10;;;0.70;99.90;;;;;;5053526;28;20611;-95
2024/01/07 06:41:39;;;;;;;3.72;3.33;;;0.70;99.90;;;;;;5083311;28;20723;-95
2024/01/07 06:44:06;;;;;;;3.35;3.00;;;0.70;99.90;;;;;;5120510;28;20223;-95
2024/01/07 06:50:01;;;;;;;4.82;3.42;;;0.70;99.90;;;;;;5123500;28;20162;-95
2024/01/07 06:52:35;;;;;;;3.30;3.00;;;0.70;99.90;;;;;;5111869;28;20234;-94
2024/01/07 06:55:03;;;;;;;5.15;3.38;;;0.70;99.90;;;;;;5106719;28;20241;-94
2024/01/07 06:57:30;;;;;;;4.45;3.08;;;0.80;99.90;;;;;;5101481;28;20707;-95
2024/01/07 06:59:57;;;;;;;3.83;3.33;;;0.80;99.90;;;;;;5099332;28;20251;-94
2024/01/07 07:02:24;;;;;;;3.67;3.38;;;0.80;99.90;;;;;;5098850;28;20235;-95
2024/01/07 07:08:14;;;;;;;5.13;3.20;;;0.90;99.90;;;;;;5100854;28;20163;-94
2024/01/07 07:10:41;;;;;;;4.20;3.30;;;0.80;99.90;;;;;;5098859;28;20219;-84
2024/01/07 07:13:08;;;;;;;5.18;2.75;;;0.90;99.90;;;;;;5097188;28;20272;-84
2024/01/07 07:15:35;;;;;;;3.53;2.75;;;0.90;99.90;;;;;;5088842;28;20704;-85
2024/01/07 07:18:07;;;;;;;3.20;2.90;;;0.90;99.90;;;;;;5096759;28;20660;-94
2024/01/07 07:20:37;;;;;;;3.47;2.72;;;0.90;99.90;;;;;;5098958;28;20539;-94
2024/01/07 07:23:05;;;;;;;3.20;2.90;;;0.90;99.90;;;;;;5098739;28;20232;-95
2024/01/07 07:25:33;;;;;;;2.50;2.30;;;0.90;99.90;;;;;;5111790;28;20230;-95
2024/01/07 07:28:01;;;;;;;3.20;2.83;;;0.90;99.90;;;;;;5116796;28;20660;-84
2024/01/07 07:30:28;;;;;;;5.45;4.95;;;0.90;99.90;;;;;;5117769;28;20230;-93
2024/01/07 07:32:55;;;;;;;4.20;3.28;;;0.90;99.90;;;;;;5117671;28;20218;-93
2024/01/07 07:35:22;;;;;;;3.28;2.97;;;0.90;99.90;;;;;;5117666;28;20283;-86
2024/01/07 07:37:49;;;;;;;4.05;3.03;;;0.90;99.90;;;;;;5116867;28;20233;-85
2024/01/07 07:40:19;;;;;;;3.00;2.70;;;1.00;99.90;;;;;;5108195;28;20214;-94
2024/01/07 07:42:47;;;;;;;3.88;2.50;;;0.90;99.90;;;;;;5117008;28;20224;-91
2024/01/07 07:45:17;;;;;;;4.25;2.60;;;0.90;99.90;;;;;;5118313;28;20222;-92
2024/01/07 07:47:45;;;;;;;4.78;2.90;;;0.90;99.90;;;;;;5118620;28;20222;-93
2024/01/07 07:50:13;;;;;;;5.80;3.60;;;0.90;99.90;;;;;;5118016;28;20276;-94
2024/01/07 07:52:40;;;;;;;3.10;2.70;;;1.00;99.90;;;;;;5118589;28;20306;-94
2024/01/07 07:55:09;;;;;;;3.40;2.67;;;1.00;99.90;;;;;;5118473;28;20230;-93
2024/01/07 07:57:37;;;;;;;4.32;3.28;;;1.10;99.90;;;;;;5132567;28;20223;-93
2024/01/07 08:00:12;;;;;;;3.65;2.55;;;1.10;99.90;;;;;;5108300;28;20228;-85
2024/01/07 08:02:39;;;;;;;4.75;2.90;;;1.10;99.90;;;;;;5118370;27;20256;-85
2024/01/07 08:05:08;;;;;;;3.38;3.08;;;1.20;99.90;;;;;;5114964;27;20288;-85
2024/01/07 08:07:35;;;;;;;4.22;3.03;;;1.20;99.90;;;;;;5136411;27;20536;-85
2024/01/07 08:10:10;;;;;;;5.72;3.78;;;1.30;99.90;;;;;;5126110;27;20689;-85
2024/01/07 08:12:39;;;;;;;4.88;3.80;;;1.30;99.90;;;;;;5134870;27;20229;-85
2024/01/07 08:15:09;;;;;;;8.10;5.10;;;1.40;99.90;;;;;;5136868;27;20282;-93
2024/01/07 08:17:39;;;;;;;13.30;7.60;;;1.50;99.90;;;;;;5138205;27;20214;-93
2024/01/07 08:23:27;;;;;;;10.05;6.85;;;1.60;99.90;;;;;;5138269;27;20214;-93
2024/01/07 08:29:46;;;;;;;9.25;4.65;;;1.70;99.90;;;;;;5131704;27;20332;-86
2024/01/07 08:32:15;;;;;;;4.65;3.50;;;1.80;99.90;;;;;;5072276;28;20314;-85
2024/01/07 08:34:42;;;;;;;2.95;2.65;;;1.80;99.90;;;;;;5072988;28;20250;-85
2024/01/07 08:37:09;;;;;;;4.95;3.70;;;1.90;99.90;;;;;;5091994;27;20226;-94
2024/01/07 08:39:36;;;;;;;4.50;3.78;;;1.90;99.90;;;;;;5123735;27;20255;-94
2024/01/07 08:42:04;;;;;;;4.35;3.72;;;1.90;99.90;;;;;;5137114;27;20237;-93
2024/01/07 08:44:34;;;;;;;3.42;2.95;;;2.00;99.90;;;;;;5125887;27;20720;-94
2024/01/07 08:47:01;;;;;;;4.75;3.25;;;2.00;99.90;;;;;;5137452;27;20222;-93
2024/01/07 08:49:33;;;;;;;6.60;3.00;;;2.00;99.90;;;;;;5129797;27;20237;-94
2024/01/07 08:52:00;;;;;;;4.05;3.13;;;2.10;99.90;;;;;;5128191;27;20236;-84
2024/01/07 08:54:27;;;;;;;3.97;3.30;;;2.10;99.90;;;;;;5125660;27;20264;-84
2024/01/07 08:56:56;;;;;;;3.67;3.22;;;2.10;99.90;;;;;;5135227;27;20210;-84
2024/01/07 08:59:24;;;;;;;3.90;3.55;;;2.20;99.90;;;;;;5137180;27;20222;-93
2024/01/07 09:01:52;;;;;;;7.43;4.78;;;2.20;99.90;;;;;;5135881;27;20221;-85
2024/01/07 09:04:19;;;;;;;9.10;6.38;;;2.20;99.90;;;;;;5134737;27;20256;-84
2024/01/07 09:06:48;;;;;;;14.90;11.50;;;2.30;99.90;;;;;;5137749;27;20308;-93
2024/01/07 09:09:15;;;;;;;25.95;17.02;;;2.30;99.90;;;;;;5136277;27;20232;-84
2024/01/07 09:11:45;;;;;;;33.90;22.40;;;2.40;99.90;;;;;;5145955;27;20227;-93
2024/01/07 09:14:14;;;;;;;25.67;19.83;;;2.40;99.90;;;;;;5135924;27;20607;-83
2024/01/07 09:16:42;;;;;;;23.17;18.75;;;2.40;99.90;;;;;;5126296;27;20221;-83
2024/01/07 09:19:19;;;;;;;8.88;7.47;;;2.40;99.90;;;;;;5135673;27;20232;-83
2024/01/07 09:21:48;;;;;;;7.55;6.60;;;2.40;99.90;;;;;;5140046;27;20226;-92
2024/01/07 09:24:18;;;;;;;7.38;6.10;;;2.50;99.90;;;;;;5136783;27;20217;-84
2024/01/07 09:27:05;;;;;;;6.57;5.93;;;2.50;99.90;;;;;;5136363;27;20631;-93
2024/01/07 09:32:50;;;;;;;12.27;7.68;;;2.50;99.90;;;;;;5102078;27;20534;-83
2024/01/07 09:35:17;;;;;;;11.45;8.38;;;2.50;99.90;;;;;;5062005;28;20233;-84
2024/01/07 09:37:55;;;;;;;16.58;14.77;;;2.60;99.90;;;;;;5085414;28;20224;-83
2024/01/07 09:40:39;;;;;;;16.27;12.55;;;2.60;99.90;;;;;;5062724;28;20219;-83
2024/01/07 09:43:10;;;;;;;8.88;7.53;;;2.60;99.90;;;;;;5073750;28;20235;-84
2024/01/07 09:45:39;;;;;;;9.45;5.63;;;2.60;99.90;;;;;;5069865;28;20307;-83
2024/01/07 09:48:52;;;;;;;6.45;5.82;;;2.60;99.90;;;;;;5101299;28;20223;-83
2024/01/07 09:51:24;;;;;;;11.52;6.85;;;2.70;99.90;;;;;;5081262;28;20234;-84
2024/01/07 09:57:14;;;;;;;14.65;9.30;;;2.60;99.90;;;;;;5068702;28;20244;-91
2024/01/07 09:59:46;;;;;;;14.60;8.30;;;2.60;99.90;;;;;;5080522;28;20298;-91
2024/01/07 10:02:17;;;;;;;14.85;9.95;;;2.60;99.90;;;;;;5097437;28;20311;-92
2024/01/07 10:04:55;;;;;;;16.35;11.10;;;2.60;99.90;;;;;;5087509;28;20286;-92
2024/01/07 10:07:26;;;;;;;15.55;8.93;;;2.60;99.90;;;;;;5088782;28;20224;-92
2024/01/07 10:10:00;;;;;;;14.93;10.50;;;2.60;99.90;;;;;;5073338;28;20221;-93
2024/01/07 10:12:41;;;;;;;;;;;;;;;;;;;;;
2024/01/07 10:15:16;;;;;;;9.20;6.60;;;2.50;99.90;;;;;;5074766;28;20673;-91
2024/01/07 10:18:08;;;;;;;6.80;5.05;;;2.60;99.90;;;;;;5073851;28;20220;-92
2024/01/07 10:20:41;;;;;;;6.95;6.28;;;2.60;99.90;;;;;;5065469;28;20236;-92
2024/01/07 10:27:04;;;;;;;7.05;6.35;;;2.50;99.90;;;;;;5049333;28;20231;-92
2024/01/07 10:30:04;;;;;;;11.13;6.03;;;2.50;99.90;;;;;;5055439;28;20243;-92
2024/01/07 10:32:44;;;;;;;6.38;5.65;;;2.50;99.90;;;;;;5078201;28;20235;-92
2024/01/07 10:35:15;;;;;;;6.78;5.63;;;2.50;99.90;;;;;;5094681;28;20230;-83
2024/01/07 10:37:53;;;;;;;6.70;6.00;;;2.60;99.90;;;;;;5087625;28;20230;-84
2024/01/07 10:40:30;;;;;;;11.82;6.32;;;2.60;99.90;;;;;;5103887;28;20231;-83
2024/01/07 10:42:58;;;;;;;9.07;8.13;;;2.60;99.90;;;;;;5085280;28;20255;-92
2024/01/07 10:45:31;;;;;;;7.53;6.90;;;2.60;99.90;;;;;;5094632;28;20316;-83
2024/01/07 10:48:06;;;;;;;8.77;6.25;;;2.60;99.90;;;;;;5078412;28;20243;-83
2024/01/07 10:50:35;;;;;;;6.57;5.97;;;2.60;99.90;;;;;;5091559;28;20231;-92
2024/01/07 10:53:12;;;;;;;6.57;5.97;;;2.60;99.90;;;;;;5100737;28;20227;-92
2024/01/07 10:56:34;;;;;;;6.05;5.55;;;2.70;99.90;;;;;;5103016;28;20242;-92
2024/01/07 10:59:27;;;;;;;10.07;5.70;;;2.70;99.90;;;;;;5092929;28;20223;-93
2024/01/07 11:01:57;;;;;;;5.53;4.93;;;2.70;99.90;;;;;;5101539;28;20719;-91
2024/01/07 11:04:35;;;;;;;4.30;4.00;;;2.80;99.90;;;;;;5092809;28;20223;-92
2024/01/07 11:07:17;;;;;;;9.68;7.93;;;2.80;99.90;;;;;;5087287;28;20216;-92
2024/01/07 11:13:35;;;;;;;6.03;5.43;;;2.90;99.90;;;;;;5069191;28;20227;-84
2024/01/07 11:16:11;;;;;;;6.80;5.55;;;2.90;99.90;;;;;;5079463;28;20223;-84
2024/01/07 11:18:59;;;;;;;;;;;;;;;;;;;;;
2024/01/07 11:21:36;;;;;;;7.50;6.18;;;2.90;99.90;;;;;;5052891;28;20296;-91
2024/01/07 11:24:44;;;;;;;6.28;5.65;;;2.90;99.90;;;;;;5072500;28;20223;-92
2024/01/07 11:27:21;;;;;;;5.35;4.95;;;2.90;99.90;;;;;;5078252;28;20233;-83
2024/01/07 11:30:10;;;;;;;5.57;5.07;;;2.90;99.90;;;;;;5075369;28;20219;-83
2024/01/07 11:32:38;;;;;;;4.63;4.15;;;2.90;99.90;;;;;;5062065;28;20232;-83
2024/01/07 11:35:10;;;;;;;5.75;4.30;;;3.00;99.90;;;;;;5094672;28;20235;-84
2024/01/07 11:37:46;;;;;;;5.68;5.22;;;3.00;99.90;;;;;;5067887;28;20224;-84
2024/01/07 11:40:50;;;;;;;6.63;5.95;;;3.00;99.90;;;;;;5086733;28;20287;-83
2024/01/07 11:43:37;;;;;;;7.53;5.97;;;3.00;99.90;;;;;;5059811;28;20256;-92
2024/01/07 11:49:17;;;;;;;7.85;6.30;;;3.00;99.90;;;;;;5108168;27;20534;-92
2024/01/07 11:51:47;;;;;;;8.73;4.68;;;3.00;99.90;;;;;;5087316;28;20193;-93
2024/01/07 11:54:21;;;;;;;6.05;5.55;;;3.10;99.90;;;;;;5066295;28;20216;-93
2024/01/07 11:57:04;;;;;;;7.43;6.80;;;3.10;99.90;;;;;;5063820;28;20247;-85
2024/01/07 11:59:39;;;;;;;9.15;7.47;;;3.10;99.90;;;;;;5059018;28;20230;-84
2024/01/07 12:02:08;;;;;;;8.07;7.32;;;3.10;99.90;;;;;;5054991;28;20290;-84
2024/01/07 12:04:41;;;;;;;8.95;8.18;;;3.20;99.90;;;;;;5057661;28;20538;-85
2024/01/07 12:07:10;;;;;;;8.63;6.60;;;3.20;99.90;;;;;;5055589;28;21482;-84
2024/01/07 12:09:39;;;;;;;6.97;6.15;;;3.20;99.90;;;;;;5048883;28;20216;-93
2024/01/07 12:12:10;;;;;;;17.23;12.88;;;3.20;99.90;;;;;;5056881;28;20228;-84
2024/01/07 12:14:44;;;;;;;19.13;12.95;;;3.20;99.90;;;;;;5051220;28;20220;-93
2024/01/07 12:17:11;;;;;;;16.58;14.43;;;3.20;99.90;;;;;;5055828;28;20378;-84
2024/01/07 12:19:58;;;;;;;10.43;8.02;;;3.30;99.90;;;;;;5059788;28;20276;-93
2024/01/07 12:22:28;;;;;;;8.93;7.88;;;3.30;99.90;;;;;;5057973;28;20299;-93
2024/01/07 12:27:52;;;;;;;17.48;15.57;;;3.30;99.90;;;;;;5072022;28;20635;-89
2024/01/07 12:30:27;;;;;;;16.98;14.52;;;3.40;99.90;;;;;;5064221;28;20230;-84
2024/01/07 12:32:56;;;;;;;15.02;13.63;;;3.40;99.90;;;;;;5078746;28;20223;-92
2024/01/07 12:36:10;;;;;;;21.40;19.40;;;3.40;99.90;;;;;;5068134;28;20277;-92
2024/01/07 12:39:00;;;;;;;26.23;23.83;;;3.40;99.90;;;;;;5072561;28;20298;-84
2024/01/07 12:41:44;;;;;;;23.73;21.52;;;3.40;99.90;;;;;;5062288;28;20228;-85
2024/01/07 12:44:19;;;;;;;20.38;18.63;;;3.40;99.90;;;;;;5080324;28;20223;-84
2024/01/07 12:46:52;;;;;;;20.42;18.50;;;3.40;99.90;;;;;;5056851;28;20227;-84
2024/01/07 12:49:35;;;;;;;14.80;13.45;;;3.50;99.90;;;;;;5063578;28;20228;-92
2024/01/07 12:52:09;;;;;;;9.50;8.60;;;3.40;99.90;;;;;;5056658;28;20563;-92
2024/01/07 12:54:57;;;;;;;9.98;7.90;;;3.40;99.90;;;;;;5073490;28;20220;-93
2024/01/07 12:58:03;;;;;;;10.60;8.43;;;3.40;99.90;;;;;;5081964;28;20224;-93
2024/01/07 13:00:55;;;;;;;7.40;5.95;;;3.50;99.90;;;;;;5058150;28;20225;-91
2024/01/07 13:03:25;;;;;;;6.53;5.93;;;3.50;99.90;;;;;;5060039;28;20244;-85
2024/01/07 13:06:01;;;;;;;6.93;6.20;;;3.50;99.90;;;;;;5057984;28;20231;-91
2024/01/07 13:08:28;;;;;;;6.70;6.10;;;3.40;99.90;;;;;;5056291;28;20726;-84
2024/01/07 13:11:00;;;;;;;5.60;5.00;;;3.50;99.90;;;;;;5056461;28;20694;-83
2024/01/07 13:13:29;;;;;;;5.57;5.07;;;3.50;99.90;;;;;;5047573;28;20305;-83
2024/01/07 13:16:04;;;;;;;5.50;4.70;;;3.50;99.90;;;;;;5056632;28;20240;-84
2024/01/07 13:22:23;;;;;;;6.40;5.80;;;3.50;99.90;;;;;;5026574;28;20560;-92
2024/01/07 13:24:56;;;;;;;4.85;4.45;;;3.50;99.90;;;;;;5071625;28;20224;-93
2024/01/07 13:27:52;;;;;;;6.80;5.10;;;3.50;99.90;;;;;;5078221;28;20234;-92
2024/01/07 13:31:01;;;;;;;8.80;8.10;;;3.50;99.90;;;;;;5058475;28;20228;-91
2024/01/07 13:36:52;;;;;;;10.32;9.27;;;3.50;99.90;;;;;;5010828;28;20225;-83
2024/01/07 13:39:30;;;;;;;10.25;7.30;;;3.50;99.90;;;;;;5034964;28;20224;-83
2024/01/07 13:42:04;;;;;;;7.35;6.32;;;3.50;99.90;;;;;;5057114;28;20684;-84
2024/01/07 13:45:02;;;;;;;6.85;6.10;;;3.50;99.90;;;;;;5057818;28;20223;-84
2024/01/07 13:47:50;;;;;;;8.23;7.53;;;3.50;99.90;;;;;;5056998;28;20351;-92
2024/01/07 13:50:37;;;;;;;10.70;9.70;;;3.50;99.90;;;;;;5047751;28;20311;-92
2024/01/07 13:53:11;;;;;;;8.88;8.07;;;3.50;99.90;;;;;;5061650;28;20235;-88
2024/01/07 13:55:46;;;;;;;10.18;9.35;;;3.60;99.90;;;;;;5049086;28;20250;-92
2024/01/07 14:01:00;;;;;;;14.88;13.55;;;3.50;99.90;;;;;;5049843;28;20221;-93
2024/01/07 14:06:15;;;;;;;15.27;14.07;;;3.50;99.90;;;;;;5059758;28;20669;-92
2024/01/07 14:08:49;;;;;;;21.15;19.38;;;3.50;99.90;;;;;;5031033;28;20242;-92
2024/01/07 14:11:19;;;;;;;9.93;9.18;;;3.60;99.90;;;;;;5066809;28;20570;-84
2024/01/07 14:14:01;;;;;;;7.32;6.72;;;3.50;99.90;;;;;;5057249;28;20319;-92
2024/01/07 14:16:36;;;;;;;8.02;7.32;;;3.50;99.90;;;;;;5056969;28;20265;-87
2024/01/07 14:19:46;;;;;;;7.10;6.50;;;3.60;99.90;;;;;;5066626;28;20303;-83
2024/01/07 14:22:21;;;;;;;8.15;5.47;;;3.50;99.90;;;;;;4984840;22;20245;-83
2024/01/07 14:25:19;;;;;;;7.72;5.95;;;3.50;99.90;;;;;;5009432;28;20226;-92
2024/01/07 14:27:53;;;;;;;6.63;6.03;;;3.50;99.90;;;;;;4988687;28;20601;-92
2024/01/07 14:34:07;;;;;;;12.57;10.77;;;3.60;99.90;;;;;;4981612;28;20234;-91
2024/01/07 14:36:44;;;;;;;8.45;7.68;;;3.50;99.90;;;;;;5004549;28;20226;-92
2024/01/07 14:39:19;;;;;;;5.85;5.32;;;3.50;99.90;;;;;;5000111;28;20351;-93
2024/01/07 14:41:49;;;;;;;5.75;5.10;;;3.50;99.90;;;;;;5006135;28;20249;-93
2024/01/07 14:44:19;;;;;;;5.55;4.53;;;3.50;99.90;;;;;;5007784;28;20245;-93
2024/01/07 14:46:48;;;;;;;4.60;4.15;;;3.50;99.90;;;;;;5004470;28;20301;-92
2024/01/07 14:49:34;;;;;;;7.18;6.53;;;3.50;99.90;;;;;;4994577;28;20235;-84
2024/01/07 14:52:20;;;;;;;12.60;9.63;;;3.50;99.90;;;;;;5001353;28;20891;-92
2024/01/07 14:54:56;;;;;;;8.52;7.78;;;3.50;99.90;;;;;;4992536;28;20402;-93
2024/01/07 14:57:51;;;;;;;6.40;5.45;;;3.50;99.90;;;;;;4980020;28;20210;-92
2024/01/07 15:00:27;;;;;;;8.30;7.57;;;3.50;99.90;;;;;;4997892;28;20249;-94